createdAt,value
2022-12-07T00:01:09.047Z,13.40
2022-12-07T00:05:52.784Z,15.80
2022-12-07T00:10:36.321Z,18.53
2022-12-07T00:15:21.281Z,17.73
2022-12-07T00:20:06.337Z,14.03
2022-12-07T00:24:49.780Z,14.23
2022-12-07T00:29:33.718Z,17.23
2022-12-07T00:34:20.719Z,16.83
2022-12-07T00:39:04.903Z,9.63
2022-12-07T00:43:49.789Z,12.00
2022-12-07T00:48:33.916Z,9.83
2022-12-07T00:53:25.151Z,14.27
2022-12-07T00:58:08.607Z,13.90
2022-12-07T01:02:52.932Z,19.17
2022-12-07T01:07:37.064Z,12.13
2022-12-07T01:12:21.915Z,11.80
2022-12-07T01:17:06.114Z,15.33
2022-12-07T01:21:49.655Z,10.37
2022-12-07T01:26:33.295Z,15.73
2022-12-07T01:31:20.792Z,14.23
2022-12-07T01:36:07.368Z,12.57
2022-12-07T01:40:57.259Z,13.57
2022-12-07T01:45:43.544Z,22.80
2022-12-07T01:50:33.007Z,11.93
2022-12-07T01:55:18.254Z,14.00
2022-12-07T02:00:03.323Z,10.63
2022-12-07T02:04:47.546Z,13.87
2022-12-07T02:09:32.379Z,10.20
2022-12-07T02:14:15.841Z,16.50
2022-12-07T02:19:21.903Z,16.17
2022-12-07T02:24:33.050Z,22.00
2022-12-07T02:29:23.864Z,15.03
2022-12-07T02:34:12.061Z,14.00
2022-12-07T02:39:02.373Z,10.60
2022-12-07T02:43:51.182Z,9.90
2022-12-07T02:48:37.008Z,11.70
2022-12-07T02:53:38.692Z,11.97
2022-12-07T02:58:33.327Z,15.93
2022-12-07T03:03:17.946Z,13.80
2022-12-07T03:08:07.417Z,12.20
2022-12-07T03:12:59.254Z,10.27
2022-12-07T03:17:45.580Z,12.77
2022-12-07T03:22:32.053Z,13.00
2022-12-07T03:27:20.868Z,10.13
2022-12-07T03:32:10.430Z,11.03
2022-12-07T03:37:00.485Z,11.47
2022-12-07T03:41:45.516Z,13.03
2022-12-07T03:46:38.029Z,9.93
2022-12-07T03:51:25.383Z,8.90
2022-12-07T03:56:10.873Z,13.03
2022-12-07T04:00:55.055Z,13.67
2022-12-07T04:05:40.467Z,9.47
2022-12-07T04:10:24.008Z,13.87
2022-12-07T04:15:08.698Z,11.90
2022-12-07T04:19:52.210Z,23.70
2022-12-07T04:24:37.283Z,17.60
2022-12-07T04:29:21.610Z,14.97
2022-12-07T04:34:05.794Z,11.90
2022-12-07T04:38:51.117Z,13.67
2022-12-07T04:43:36.884Z,17.30
2022-12-07T04:48:20.344Z,25.03
2022-12-07T04:53:04.195Z,18.07
2022-12-07T04:57:47.672Z,9.33
2022-12-07T05:02:32.508Z,10.03
2022-12-07T05:07:15.962Z,8.40
2022-12-07T05:11:59.379Z,10.70
2022-12-07T05:16:44.512Z,10.80
2022-12-07T05:21:29.653Z,12.70
2022-12-07T05:26:14.014Z,11.77
2022-12-07T05:30:59.978Z,12.90
2022-12-07T05:35:44.356Z,26.27
2022-12-07T05:40:29.266Z,22.83
2022-12-07T05:45:13.759Z,22.80
2022-12-07T05:49:57.543Z,23.00
2022-12-07T05:54:41.492Z,30.20
2022-12-07T05:59:28.749Z,25.77
2022-12-07T06:04:12.321Z,26.30
2022-12-07T06:08:55.915Z,22.70
2022-12-07T06:13:45.335Z,23.97
2022-12-07T06:18:31.981Z,19.73
2022-12-07T06:23:15.409Z,23.13
2022-12-07T06:27:58.871Z,20.90
2022-12-07T06:32:42.527Z,21.83
2022-12-07T06:37:27.336Z,46.20
2022-12-07T06:42:11.046Z,23.30
2022-12-07T06:47:12.248Z,24.50
2022-12-07T06:51:56.117Z,22.83
2022-12-07T06:56:41.366Z,23.87
2022-12-07T07:01:25.096Z,21.47
2022-12-07T07:06:09.755Z,43.50
2022-12-07T07:10:53.684Z,24.70
2022-12-07T07:15:45.381Z,22.80
2022-12-07T07:20:29.287Z,23.27
2022-12-07T07:25:12.882Z,22.33
2022-12-07T07:29:56.642Z,22.30
2022-12-07T07:34:42.383Z,21.13
2022-12-07T07:39:25.924Z,20.70
2022-12-07T07:44:09.506Z,30.33
2022-12-07T07:48:53.026Z,20.37
2022-12-07T07:53:38.185Z,25.17
2022-12-07T07:58:21.967Z,22.00
2022-12-07T08:03:05.568Z,20.53
2022-12-07T08:07:49.249Z,18.10
2022-12-07T08:12:37.560Z,14.80
2022-12-07T08:17:20.987Z,18.70
2022-12-07T08:22:05.333Z,18.97
2022-12-07T08:26:49.590Z,16.17
2022-12-07T08:31:35.048Z,18.63
2022-12-07T08:36:19.793Z,16.97
2022-12-07T08:41:03.254Z,18.30
2022-12-07T08:45:46.890Z,19.23
2022-12-07T08:50:31.846Z,18.60
2022-12-07T08:55:15.874Z,16.37
2022-12-07T09:00:00.491Z,18.57
2022-12-07T09:04:44.273Z,14.13
2022-12-07T09:09:29.206Z,18.67
2022-12-07T09:14:13.632Z,20.80
2022-12-07T09:18:57.100Z,18.57
2022-12-07T09:23:41.015Z,17.10
2022-12-07T09:28:25.875Z,20.13
2022-12-07T09:33:09.538Z,17.13
2022-12-07T09:37:53.014Z,16.17
2022-12-07T09:42:40.822Z,14.37
2022-12-07T09:47:25.960Z,18.43
2022-12-07T09:52:22.167Z,18.57
2022-12-07T09:57:06.111Z,15.77
2022-12-07T10:01:51.688Z,22.37
2022-12-07T10:06:36.698Z,24.13
2022-12-07T10:11:20.271Z,17.50
2022-12-07T10:16:07.220Z,22.60
2022-12-07T10:20:51.410Z,19.37
2022-12-07T10:25:39.373Z,22.77
2022-12-07T10:30:23.129Z,18.57
2022-12-07T10:35:25.626Z,21.73
2022-12-07T10:40:27.962Z,24.97
2022-12-07T10:45:18.030Z,17.13
2022-12-07T10:50:31.057Z,18.23
2022-12-07T10:55:24.976Z,18.67
2022-12-07T11:00:18.348Z,19.83
2022-12-07T11:05:18.289Z,23.30
2022-12-07T11:10:11.139Z,23.07
2022-12-07T11:15:03.000Z,19.00
2022-12-07T11:20:04.116Z,21.27
2022-12-07T11:24:52.837Z,20.80
2022-12-07T11:30:05.010Z,15.63
2022-12-07T11:35:00.275Z,19.37
2022-12-07T11:39:49.609Z,18.07
2022-12-07T11:44:37.668Z,23.50
2022-12-07T11:49:27.088Z,17.17
2022-12-07T11:54:20.584Z,15.33
2022-12-07T11:59:11.840Z,18.03
2022-12-07T12:04:03.044Z,20.93
2022-12-07T12:14:36.898Z,15.63
2022-12-07T12:19:35.186Z,14.17
2022-12-07T12:24:21.719Z,13.30
2022-12-07T12:29:09.885Z,15.80
2022-12-07T12:33:55.594Z,14.93
2022-12-07T12:38:52.073Z,17.97
2022-12-07T12:43:52.062Z,15.50
2022-12-07T12:48:39.190Z,14.73
2022-12-07T12:53:25.342Z,17.13
2022-12-07T12:58:32.740Z,17.10
2022-12-07T13:03:29.041Z,18.23
2022-12-07T13:08:20.174Z,18.83
2022-12-07T13:13:06.982Z,18.27
2022-12-07T13:18:36.802Z,20.33
2022-12-07T13:23:28.212Z,23.07
2022-12-07T13:28:19.652Z,20.33
2022-12-07T13:33:05.878Z,19.43
2022-12-07T13:37:49.465Z,22.07
2022-12-07T13:42:35.903Z,21.13
2022-12-07T13:47:34.363Z,15.73
2022-12-07T13:52:20.475Z,19.07
2022-12-07T13:57:04.141Z,19.90
2022-12-07T14:01:51.354Z,17.60
2022-12-07T14:06:36.438Z,22.90
2022-12-07T14:11:23.031Z,39.93
2022-12-07T14:16:21.213Z,22.17
2022-12-07T14:21:18.284Z,20.73
2022-12-07T14:26:10.805Z,25.27
2022-12-07T14:30:54.399Z,26.33
2022-12-07T14:35:41.682Z,18.90
2022-12-07T14:40:29.545Z,20.73
2022-12-07T14:45:18.336Z,16.47
2022-12-07T14:50:05.042Z,18.77
2022-12-07T14:54:50.172Z,18.90
2022-12-07T14:59:36.335Z,22.17
2022-12-07T15:04:22.668Z,19.43
2022-12-07T15:09:06.671Z,20.73
2022-12-07T15:14:07.377Z,25.87
2022-12-07T15:19:26.401Z,24.30
2022-12-07T15:23:57.043Z,23.17
2022-12-07T15:28:40.480Z,20.17
2022-12-07T15:33:24.079Z,26.40
2022-12-07T15:38:09.361Z,26.90
2022-12-07T15:42:52.846Z,25.97
2022-12-07T15:52:42.603Z,31.40
2022-12-07T15:57:27.639Z,26.27
2022-12-07T16:02:12.458Z,30.77
2022-12-07T16:06:55.970Z,26.87
2022-12-07T16:11:39.449Z,29.90
2022-12-07T16:16:24.471Z,28.27
2022-12-07T16:21:08.591Z,23.30
2022-12-07T16:25:52.353Z,28.07
2022-12-07T16:30:36.430Z,25.63
2022-12-07T16:35:21.987Z,31.77
2022-12-07T16:40:05.933Z,23.60
2022-12-07T16:44:50.123Z,26.70
2022-12-07T16:49:33.877Z,29.83
2022-12-07T16:54:18.989Z,33.50
2022-12-07T16:59:02.477Z,32.13
2022-12-07T17:03:46.686Z,31.43
2022-12-07T17:08:30.603Z,29.73
2022-12-07T17:13:33.836Z,26.77
2022-12-07T17:18:17.846Z,36.00
2022-12-07T17:23:04.865Z,30.90
2022-12-07T17:27:49.651Z,35.77
2022-12-07T17:32:34.950Z,36.67
2022-12-07T17:37:18.429Z,41.23
2022-12-07T17:42:19.738Z,35.50
2022-12-07T17:47:04.331Z,31.83
2022-12-07T17:52:06.964Z,35.90
2022-12-07T17:56:50.757Z,34.33
2022-12-07T18:01:36.448Z,29.10
2022-12-07T18:06:20.538Z,32.93
2022-12-07T18:11:06.707Z,26.00
2022-12-07T18:15:58.890Z,29.00
2022-12-07T18:20:43.218Z,33.73
2022-12-07T18:25:27.030Z,31.03
2022-12-07T18:30:13.684Z,28.27
2022-12-07T18:34:58.254Z,29.07
2022-12-07T18:39:44.512Z,24.53
2022-12-07T18:44:32.489Z,29.20
2022-12-07T18:49:20.571Z,29.63
2022-12-07T18:54:05.059Z,30.37
2022-12-07T18:59:09.023Z,31.63
2022-12-07T19:03:56.018Z,29.73
2022-12-07T19:08:41.968Z,34.43
2022-12-07T19:13:27.540Z,33.33
2022-12-07T19:18:11.891Z,29.67
2022-12-07T19:22:59.240Z,32.73
2022-12-07T19:27:45.993Z,33.30
2022-12-07T19:32:31.705Z,37.73
2022-12-07T19:37:17.232Z,26.53
2022-12-07T19:42:04.422Z,39.03
2022-12-07T19:46:51.762Z,33.57
2022-12-07T19:51:37.358Z,33.50
2022-12-07T19:56:25.095Z,36.03
2022-12-07T20:01:11.880Z,39.57
2022-12-07T20:05:59.105Z,30.27
2022-12-07T20:10:45.811Z,31.50
2022-12-07T20:15:31.260Z,39.83
2022-12-07T20:20:17.646Z,32.67
2022-12-07T20:25:06.122Z,30.07
2022-12-07T20:29:52.488Z,31.77
2022-12-07T20:34:40.290Z,31.60
2022-12-07T20:39:30.352Z,30.47
2022-12-07T20:44:18.061Z,37.07
2022-12-07T20:49:03.615Z,37.60
2022-12-07T20:53:48.795Z,42.60
2022-12-07T20:58:34.555Z,50.60
2022-12-07T21:03:20.128Z,53.53
2022-12-07T21:08:04.602Z,43.03
2022-12-07T21:12:55.364Z,45.70
2022-12-07T21:17:40.187Z,40.80
2022-12-07T21:22:26.263Z,44.30
2022-12-07T21:27:10.635Z,36.90
2022-12-07T21:31:55.364Z,40.23
2022-12-07T21:36:40.452Z,45.03
2022-12-07T21:41:26.952Z,37.40
2022-12-07T21:46:10.748Z,36.33
2022-12-07T21:50:57.100Z,41.80
2022-12-07T21:55:42.085Z,35.13
2022-12-07T22:00:28.449Z,38.57
2022-12-07T22:05:12.478Z,43.37
2022-12-07T22:09:55.952Z,35.87
2022-12-07T22:14:56.873Z,28.50
2022-12-07T22:19:42.517Z,28.47
2022-12-07T22:24:26.135Z,25.17
2022-12-07T22:29:10.782Z,26.43
2022-12-07T22:33:57.871Z,19.03
2022-12-07T22:38:43.772Z,16.30
2022-12-07T22:43:28.193Z,17.40
2022-12-07T22:48:11.845Z,16.13
2022-12-07T22:52:56.978Z,14.93
2022-12-07T22:57:41.919Z,16.30
2022-12-07T23:02:26.251Z,14.33
2022-12-07T23:07:09.851Z,13.20
2022-12-07T23:12:10.699Z,16.93
2022-12-07T23:16:56.621Z,12.37
2022-12-07T23:21:40.929Z,11.73
2022-12-07T23:26:24.369Z,10.93
2022-12-07T23:31:09.191Z,11.23
2022-12-07T23:35:53.999Z,11.87
2022-12-07T23:40:38.448Z,9.27
2022-12-07T23:45:22.307Z,8.10
2022-12-07T23:50:07.112Z,8.50
2022-12-07T23:54:52.495Z,9.67
2022-12-07T23:59:36.332Z,8.03
